Time;durP1;ratioP1;P1;durP2;ratioP2;P2;SDS_P1;SDS_P2;PMS_P1;PMS_P2;Temp;Humidity;BMP_temperature;BMP_pressure;BME280_temperature;BME280_humidity;BME280_pressure;Samples;Min_cycle;Max_cycle;Signal;HPM_P1;HPM_P2
2022/08/06 00:01:31;;;;;;;6.05;2.47;;;;;;;;;;5096604;28;20044;-71
2022/08/06 00:03:57;;;;;;;5.40;1.65;;;;;;;;;;5089169;28;20067;-71
2022/08/06 00:06:23;;;;;;;6.03;1.55;;;;;;;;;;5095169;28;20451;-71
2022/08/06 00:08:49;;;;;;;6.13;1.45;;;;;;;;;;5096548;28;20071;-71
2022/08/06 00:11:15;;;;;;;7.00;1.90;;;;;;;;;;5100037;28;20172;-72
2022/08/06 00:13:41;;;;;;;6.63;1.77;;;;;;;;;;5105978;28;20389;-71
2022/08/06 00:16:07;;;;;;;4.60;1.50;;;;;;;;;;5116319;28;20051;-71
2022/08/06 00:18:33;;;;;;;4.88;1.67;;;;;;;;;;5097958;28;20562;-70
2022/08/06 00:20:59;;;;;;;6.00;1.83;;;;;;;;;;5094820;28;20048;-71
2022/08/06 00:23:25;;;;;;;6.00;1.63;;;;;;;;;;5104466;28;20086;-72
2022/08/06 00:25:52;;;;;;;5.15;1.48;;;;;;;;;;5095581;28;20044;-72
2022/08/06 00:28:18;;;;;;;6.93;1.77;;;;;;;;;;5096114;28;20046;-72
2022/08/06 00:30:44;;;;;;;8.30;2.00;;;;;;;;;;5108464;28;20417;-72
2022/08/06 00:33:10;;;;;;;6.03;1.60;;;;;;;;;;5104329;28;20051;-70
2022/08/06 00:35:36;;;;;;;8.27;1.95;;;;;;;;;;5077364;28;20167;-71
2022/08/06 00:38:02;;;;;;;6.60;1.65;;;;;;;;;;5082896;28;20072;-71
2022/08/06 00:40:29;;;;;;;4.47;1.60;;;;;;;;;;5100577;28;20060;-74
2022/08/06 00:42:55;;;;;;;7.30;1.75;;;;;;;;;;5076844;28;20125;-71
2022/08/06 00:45:22;;;;;;;6.18;1.50;;;;;;;;;;5118007;28;20054;-71
2022/08/06 00:47:48;;;;;;;5.47;1.80;;;;;;;;;;5118303;28;20379;-71
2022/08/06 00:50:14;;;;;;;5.32;1.70;;;;;;;;;;5090324;28;20039;-71
2022/08/06 00:52:40;;;;;;;7.40;1.60;;;;;;;;;;5111334;28;20036;-71
2022/08/06 00:55:06;;;;;;;4.85;1.58;;;;;;;;;;5116129;28;20401;-70
2022/08/06 00:57:32;;;;;;;4.75;1.65;;;;;;;;;;5108320;28;20089;-70
2022/08/06 00:59:58;;;;;;;6.03;1.90;;;;;;;;;;5098479;28;20040;-72
2022/08/06 01:02:24;;;;;;;8.00;1.85;;;;;;;;;;5066158;28;20151;-70
2022/08/06 01:04:50;;;;;;;6.57;1.90;;;;;;;;;;5107620;28;20040;-71
2022/08/06 01:07:16;;;;;;;5.43;1.75;;;;;;;;;;5098811;28;20044;-71
2022/08/06 01:09:42;;;;;;;5.70;2.08;;;;;;;;;;5098572;28;20044;-71
2022/08/06 01:12:08;;;;;;;6.18;1.92;;;;;;;;;;5096320;28;20047;-71
2022/08/06 01:14:34;;;;;;;8.95;2.20;;;;;;;;;;5114262;28;20039;-71
2022/08/06 01:17:03;;;;;;;7.47;2.22;;;;;;;;;;5118466;28;20048;-71
2022/08/06 01:19:29;;;;;;;6.85;2.20;;;;;;;;;;5117083;28;20393;-72
2022/08/06 01:22:01;;;;;;;7.00;2.08;;;;;;;;;;5110983;28;20044;-72
2022/08/06 01:24:30;;;;;;;6.88;2.20;;;;;;;;;;5113378;28;20046;-70
2022/08/06 01:27:26;;;;;;;7.50;2.22;;;;;;;;;;5117469;28;20050;-71
2022/08/06 01:29:53;;;;;;;6.95;1.98;;;;;;;;;;5101822;28;20044;-71
2022/08/06 01:32:26;;;;;;;10.40;2.50;;;;;;;;;;5100605;28;20040;-71
2022/08/06 01:34:57;;;;;;;5.38;1.95;;;;;;;;;;5112989;28;20040;-71
2022/08/06 01:37:26;;;;;;;6.00;2.47;;;;;;;;;;5118042;28;20047;-71
2022/08/06 01:40:03;;;;;;;5.43;2.15;;;;;;;;;;5118152;28;20061;-70
2022/08/06 01:42:30;;;;;;;6.80;2.17;;;;;;;;;;5111637;28;20047;-71
2022/08/06 01:45:00;;;;;;;8.13;2.22;;;;;;;;;;5097998;28;20040;-71
2022/08/06 01:47:28;;;;;;;9.45;2.22;;;;;;;;;;5098265;28;20102;-72
2022/08/06 01:49:56;;;;;;;6.43;1.85;;;;;;;;;;5079130;28;20088;-71
2022/08/06 01:52:24;;;;;;;5.35;2.10;;;;;;;;;;5098253;28;20505;-71
2022/08/06 01:54:50;;;;;;;6.13;2.10;;;;;;;;;;5103978;28;20052;-71
2022/08/06 01:57:18;;;;;;;7.55;2.30;;;;;;;;;;5108714;28;20120;-71
2022/08/06 01:59:49;;;;;;;7.35;2.53;;;;;;;;;;5109625;28;20089;-71
2022/08/06 02:02:15;;;;;;;;;;;;;;;;;;5115680;28;20127;-71
2022/08/06 02:04:42;;;;;;;8.02;2.25;;;;;;;;;;5104082;28;19951;-72
2022/08/06 02:07:10;;;;;;;8.57;2.17;;;;;;;;;;5118331;28;20075;-72
2022/08/06 02:09:36;;;;;;;5.72;1.60;;;;;;;;;;5107114;28;20036;-71
2022/08/06 02:12:04;;;;;;;9.05;2.13;;;;;;;;;;5115514;28;20110;-71
2022/08/06 02:14:31;;;;;;;6.70;1.98;;;;;;;;;;5110439;28;20043;-70
2022/08/06 02:16:59;;;;;;;7.63;1.95;;;;;;;;;;5117172;28;20040;-71
2022/08/06 02:19:25;;;;;;;4.80;1.67;;;;;;;;;;5115454;28;20095;-71
2022/08/06 02:21:53;;;;;;;6.78;2.10;;;;;;;;;;5116985;28;20040;-71
2022/08/06 02:24:20;;;;;;;5.88;2.20;;;;;;;;;;5100793;28;20047;-71
2022/08/06 02:26:46;;;;;;;6.80;1.80;;;;;;;;;;5069384;28;20048;-71
2022/08/06 02:29:16;;;;;;;5.72;1.65;;;;;;;;;;5114633;28;20058;-71
2022/08/06 02:31:43;;;;;;;6.18;1.70;;;;;;;;;;5117143;28;20088;-71
2022/08/06 02:34:10;;;;;;;4.60;1.50;;;;;;;;;;5100951;28;20043;-72
2022/08/06 02:36:39;;;;;;;5.13;1.55;;;;;;;;;;5096896;28;20119;-72
2022/08/06 02:39:11;;;;;;;5.72;1.70;;;;;;;;;;5103549;28;20047;-71
2022/08/06 02:41:50;;;;;;;8.65;1.63;;;;;;;;;;5102100;28;20047;-71
2022/08/06 02:44:22;;;;;;;5.00;1.40;;;;;;;;;;5108169;28;20047;-72
2022/08/06 02:46:56;;;;;;;5.65;1.58;;;;;;;;;;5116128;28;20122;-72
2022/08/06 02:49:23;;;;;;;6.30;1.67;;;;;;;;;;5096974;28;20043;-71
2022/08/06 02:52:05;;;;;;;5.63;1.80;;;;;;;;;;5077947;28;20048;-71
2022/08/06 02:54:31;;;;;;;;;;;;;;;;;;5111748;28;20052;-70
2022/08/06 02:57:04;;;;;;;5.35;1.48;;;;;;;;;;5111613;28;19973;-71
2022/08/06 02:59:33;;;;;;;6.05;1.58;;;;;;;;;;5101325;28;20047;-72
2022/08/06 03:02:01;;;;;;;6.38;1.42;;;;;;;;;;5110781;28;20035;-71
2022/08/06 03:04:28;;;;;;;3.95;1.38;;;;;;;;;;5095510;28;20046;-71
2022/08/06 03:06:55;;;;;;;5.57;1.65;;;;;;;;;;5115816;28;20164;-71
2022/08/06 03:09:22;;;;;;;5.00;1.52;;;;;;;;;;5115281;28;20039;-70
2022/08/06 03:11:48;;;;;;;5.13;1.42;;;;;;;;;;5106083;28;20064;-71
2022/08/06 03:14:15;;;;;;;9.23;1.60;;;;;;;;;;5094167;28;20047;-71
2022/08/06 03:16:42;;;;;;;8.07;1.63;;;;;;;;;;5094978;28;20562;-71
2022/08/06 03:19:09;;;;;;;5.60;1.38;;;;;;;;;;5110287;28;20416;-70
2022/08/06 03:21:35;;;;;;;6.97;1.55;;;;;;;;;;5095133;28;20459;-71
2022/08/06 03:24:01;;;;;;;6.93;1.33;;;;;;;;;;5094363;28;20440;-71
2022/08/06 03:26:28;;;;;;;4.85;1.40;;;;;;;;;;5096001;28;20054;-71
2022/08/06 03:28:58;;;;;;;5.07;1.40;;;;;;;;;;5095733;28;20474;-72
2022/08/06 03:31:24;;;;;;;4.60;1.45;;;;;;;;;;5093020;28;20424;-71
2022/08/06 03:33:51;;;;;;;4.07;1.45;;;;;;;;;;5107004;28;20425;-71
2022/08/06 03:36:18;;;;;;;5.05;1.50;;;;;;;;;;5115268;28;20047;-71
2022/08/06 03:38:55;;;;;;;5.10;1.60;;;;;;;;;;5116144;28;20050;-71
2022/08/06 03:41:22;;;;;;;5.97;1.95;;;;;;;;;;5115865;28;20050;-72
2022/08/06 03:43:48;;;;;;;5.72;1.80;;;;;;;;;;5111439;28;20040;-72
2022/08/06 03:46:16;;;;;;;5.93;1.88;;;;;;;;;;5113495;28;20093;-70
2022/08/06 03:48:43;;;;;;;7.32;2.10;;;;;;;;;;5092501;28;20189;-71
2022/08/06 03:51:11;;;;;;;8.05;2.42;;;;;;;;;;5095537;28;20455;-70
2022/08/06 03:53:38;;;;;;;6.07;2.08;;;;;;;;;;5101679;28;20122;-71
2022/08/06 03:56:07;;;;;;;5.88;2.42;;;;;;;;;;5077074;28;20040;-71
2022/08/06 03:58:34;;;;;;;7.88;2.45;;;;;;;;;;5094172;28;20094;-71
2022/08/06 04:01:01;;;;;;;6.05;2.33;;;;;;;;;;5094059;28;20402;-72
2022/08/06 04:03:28;;;;;;;5.70;2.35;;;;;;;;;;5100969;28;20050;-70
2022/08/06 04:05:54;;;;;;;5.63;2.30;;;;;;;;;;5105694;28;20040;-71
2022/08/06 04:08:20;;;;;;;8.13;2.35;;;;;;;;;;5110199;28;20039;-72
2022/08/06 04:10:50;;;;;;;6.50;3.00;;;;;;;;;;5115547;28;20085;-70
2022/08/06 04:13:18;;;;;;;6.07;2.75;;;;;;;;;;5110509;28;20040;-71
2022/08/06 04:15:44;;;;;;;8.40;2.92;;;;;;;;;;5116545;28;20096;-71
2022/08/06 04:18:11;;;;;;;7.82;2.90;;;;;;;;;;5097466;28;20047;-71
2022/08/06 04:20:39;;;;;;;7.20;2.75;;;;;;;;;;5098628;28;20048;-70
2022/08/06 04:23:06;;;;;;;8.05;3.00;;;;;;;;;;5100269;28;20040;-71
2022/08/06 04:25:34;;;;;;;6.32;3.22;;;;;;;;;;5098463;28;20052;-71
2022/08/06 04:28:02;;;;;;;6.70;3.38;;;;;;;;;;5080039;28;20055;-71
2022/08/06 04:30:28;;;;;;;8.05;3.25;;;;;;;;;;5100293;28;20079;-71
2022/08/06 04:32:56;;;;;;;8.07;3.05;;;;;;;;;;5115696;28;20039;-71
2022/08/06 04:35:22;;;;;;;6.65;2.92;;;;;;;;;;5099599;28;20032;-71
2022/08/06 04:37:48;;;;;;;7.00;3.20;;;;;;;;;;5097795;28;20039;-71
2022/08/06 04:40:14;;;;;;;9.02;3.28;;;;;;;;;;5097653;28;20056;-71
2022/08/06 04:42:41;;;;;;;6.18;2.83;;;;;;;;;;5096838;28;20044;-72
2022/08/06 04:45:08;;;;;;;8.00;3.20;;;;;;;;;;5100655;28;20406;-71
2022/08/06 04:47:35;;;;;;;7.03;3.05;;;;;;;;;;5098806;28;20059;-71
2022/08/06 04:50:01;;;;;;;7.63;2.88;;;;;;;;;;5099174;28;20040;-71
2022/08/06 04:52:30;;;;;;;8.48;3.25;;;;;;;;;;5080095;28;20504;-71
2022/08/06 04:54:56;;;;;;;6.47;3.10;;;;;;;;;;5106044;28;20083;-71
2022/08/06 04:57:22;;;;;;;7.60;3.03;;;;;;;;;;5115135;28;20524;-70
2022/08/06 04:59:48;;;;;;;6.13;2.80;;;;;;;;;;5111318;28;20181;-71
2022/08/06 05:02:14;;;;;;;6.82;2.65;;;;;;;;;;5105937;28;20077;-71
2022/08/06 05:04:40;;;;;;;4.75;2.13;;;;;;;;;;5096471;28;20048;-71
2022/08/06 05:07:09;;;;;;;6.93;2.60;;;;;;;;;;5097656;28;20060;-71
2022/08/06 05:09:35;;;;;;;7.43;2.90;;;;;;;;;;5097394;28;20036;-71
2022/08/06 05:12:04;;;;;;;5.90;2.50;;;;;;;;;;5097005;28;20052;-72
2022/08/06 05:14:32;;;;;;;5.82;2.72;;;;;;;;;;5099083;28;20079;-71
2022/08/06 05:17:01;;;;;;;7.88;2.40;;;;;;;;;;5120178;28;20493;-71
2022/08/06 05:19:31;;;;;;;5.38;1.80;;;;;;;;;;5098068;28;20043;-71
2022/08/06 05:21:58;;;;;;;4.90;2.10;;;;;;;;;;5074592;28;20042;-71
2022/08/06 05:24:25;;;;;;;5.38;2.47;;;;;;;;;;5097152;28;20043;-71
2022/08/06 05:26:51;;;;;;;7.97;2.83;;;;;;;;;;5105960;28;20044;-71
2022/08/06 05:29:20;;;;;;;5.85;2.40;;;;;;;;;;5077371;28;21196;-70
2022/08/06 05:31:46;;;;;;;4.13;1.77;;;;;;;;;;5096319;28;20162;-71
2022/08/06 05:34:13;;;;;;;6.70;1.92;;;;;;;;;;5079364;28;20055;-71
2022/08/06 05:36:39;;;;;;;5.18;1.67;;;;;;;;;;5097764;28;20051;-71
2022/08/06 05:39:06;;;;;;;6.32;1.80;;;;;;;;;;5097881;28;20044;-71
2022/08/06 05:41:34;;;;;;;4.90;1.45;;;;;;;;;;5096602;28;20040;-71
2022/08/06 05:44:01;;;;;;;6.18;1.48;;;;;;;;;;5113857;28;20055;-71
2022/08/06 05:46:29;;;;;;;4.25;1.20;;;;;;;;;;5114975;28;20550;-72
2022/08/06 05:48:55;;;;;;;5.20;1.00;;;;;;;;;;5111603;28;20490;-70
2022/08/06 05:51:29;;;;;;;3.35;0.90;;;;;;;;;;5095879;28;20040;-72
2022/08/06 05:54:00;;;;;;;4.10;1.00;;;;;;;;;;5102638;28;20443;-72
2022/08/06 05:56:27;;;;;;;3.55;0.95;;;;;;;;;;5105075;28;20521;-71
2022/08/06 05:58:55;;;;;;;3.80;1.25;;;;;;;;;;5109086;28;20082;-73
2022/08/06 06:01:22;;;;;;;3.55;1.20;;;;;;;;;;5111774;28;20100;-72
2022/08/06 06:03:48;;;;;;;3.38;0.80;;;;;;;;;;5103835;28;20055;-72
2022/08/06 06:06:15;;;;;;;4.60;0.98;;;;;;;;;;5107648;28;20067;-71
2022/08/06 06:08:41;;;;;;;4.32;1.02;;;;;;;;;;5107382;28;20078;-71
2022/08/06 06:11:08;;;;;;;4.35;0.98;;;;;;;;;;5096755;28;20372;-71
2022/08/06 06:13:34;;;;;;;4.43;1.20;;;;;;;;;;5104568;28;20036;-72
2022/08/06 06:16:06;;;;;;;3.67;0.90;;;;;;;;;;5103180;28;20194;-72
2022/08/06 06:18:54;;;;;;;5.10;1.00;;;;;;;;;;5100724;28;20075;-71
2022/08/06 06:21:34;;;;;;;2.60;0.65;;;;;;;;;;5095750;28;20036;-72
2022/08/06 06:24:06;;;;;;;3.75;0.90;;;;;;;;;;5097260;28;20036;-71
2022/08/06 06:26:38;;;;;;;4.30;0.82;;;;;;;;;;5114693;28;20455;-71
2022/08/06 06:29:13;;;;;;;3.92;0.88;;;;;;;;;;5116269;28;20074;-70
2022/08/06 06:32:01;;;;;;;5.68;0.90;;;;;;;;;;5103867;28;20185;-71
2022/08/06 06:34:46;;;;;;;3.95;0.73;;;;;;;;;;5097614;28;20055;-70
2022/08/06 06:37:18;;;;;;;5.18;1.00;;;;;;;;;;5108625;28;20096;-70
2022/08/06 06:40:00;;;;;;;4.35;0.90;;;;;;;;;;5098693;28;20040;-71
2022/08/06 06:42:35;;;;;;;3.55;0.75;;;;;;;;;;5097571;28;20044;-71
2022/08/06 06:45:07;;;;;;;4.15;0.80;;;;;;;;;;5104731;28;20079;-72
2022/08/06 06:47:39;;;;;;;5.60;0.80;;;;;;;;;;5096016;28;20042;-71
2022/08/06 06:50:11;;;;;;;4.82;0.60;;;;;;;;;;5093350;28;20048;-72
2022/08/06 06:52:38;;;;;;;2.58;0.68;;;;;;;;;;5074987;28;20044;-72
2022/08/06 06:55:17;;;;;;;4.03;0.80;;;;;;;;;;5093152;28;20056;-70
2022/08/06 06:57:46;;;;;;;3.58;0.60;;;;;;;;;;5093218;28;20052;-71
2022/08/06 07:00:13;;;;;;;3.25;0.70;;;;;;;;;;5093643;28;20048;-71
2022/08/06 07:02:40;;;;;;;4.00;0.70;;;;;;;;;;5097811;28;20039;-72
2022/08/06 07:05:08;;;;;;;5.30;0.60;;;;;;;;;;5098921;28;20119;-71
2022/08/06 07:07:35;;;;;;;3.25;0.50;;;;;;;;;;5095117;28;20409;-71
2022/08/06 07:10:02;;;;;;;3.10;0.50;;;;;;;;;;5097328;28;20352;-73
2022/08/06 07:12:30;;;;;;;2.83;0.60;;;;;;;;;;5094310;28;20064;-71
2022/08/06 07:14:58;;;;;;;1.88;0.50;;;;;;;;;;5093390;28;20051;-71
2022/08/06 07:17:24;;;;;;;2.60;0.50;;;;;;;;;;5075125;28;20048;-72
2022/08/06 07:19:52;;;;;;;3.25;0.57;;;;;;;;;;5093566;28;20126;-72
2022/08/06 07:22:20;;;;;;;2.65;0.57;;;;;;;;;;5093318;28;20040;-71
2022/08/06 07:24:46;;;;;;;3.58;0.50;;;;;;;;;;5106955;28;20086;-71
2022/08/06 07:27:13;;;;;;;3.10;0.55;;;;;;;;;;5095457;28;20043;-71
2022/08/06 07:29:41;;;;;;;3.25;0.50;;;;;;;;;;5103060;28;20081;-71
2022/08/06 07:32:10;;;;;;;3.75;0.52;;;;;;;;;;5092927;28;20127;-71
2022/08/06 07:34:36;;;;;;;1.55;0.40;;;;;;;;;;5098059;28;20056;-70
2022/08/06 07:37:02;;;;;;;3.92;0.43;;;;;;;;;;5098274;28;20040;-71
2022/08/06 07:39:30;;;;;;;3.33;0.50;;;;;;;;;;5095785;28;20071;-71
2022/08/06 07:41:57;;;;;;;4.00;0.55;;;;;;;;;;5096270;28;20035;-70
2022/08/06 07:44:24;;;;;;;4.13;0.60;;;;;;;;;;5080160;28;20069;-72
2022/08/06 07:46:54;;;;;;;3.35;0.60;;;;;;;;;;5108001;28;20052;-71
2022/08/06 07:49:22;;;;;;;2.88;0.57;;;;;;;;;;5098215;28;20127;-71
2022/08/06 07:51:50;;;;;;;4.00;0.55;;;;;;;;;;5118272;28;20050;-72
2022/08/06 07:54:18;;;;;;;3.70;0.70;;;;;;;;;;5104380;28;20059;-72
2022/08/06 07:56:44;;;;;;;4.65;0.70;;;;;;;;;;5117842;28;20051;-71
2022/08/06 07:59:10;;;;;;;2.85;0.70;;;;;;;;;;5103482;28;20207;-72
2022/08/06 08:01:38;;;;;;;3.00;0.63;;;;;;;;;;5097809;28;20119;-71
2022/08/06 08:06:51;;;;;;;4.68;0.70;;;;;;;;;;5097839;28;20048;-71
2022/08/06 08:09:21;;;;;;;4.75;0.90;;;;;;;;;;5079347;28;20072;-71
2022/08/06 08:11:48;;;;;;;3.78;0.60;;;;;;;;;;5113152;28;20088;-71
2022/08/06 08:14:16;;;;;;;3.65;0.68;;;;;;;;;;5116159;28;20556;-72
2022/08/06 08:16:43;;;;;;;2.47;0.47;;;;;;;;;;5117426;28;20047;-70
2022/08/06 08:19:22;;;;;;;2.92;0.50;;;;;;;;;;5117437;28;20047;-71
2022/08/06 08:21:48;;;;;;;4.38;0.60;;;;;;;;;;5113592;28;20051;-72
2022/08/06 08:24:15;;;;;;;4.25;0.60;;;;;;;;;;5079836;28;20532;-71
2022/08/06 08:26:41;;;;;;;4.40;0.60;;;;;;;;;;5097717;28;20051;-71
2022/08/06 08:29:09;;;;;;;3.00;0.50;;;;;;;;;;5097588;28;20044;-71
2022/08/06 08:31:36;;;;;;;2.80;0.60;;;;;;;;;;5117586;28;20051;-71
2022/08/06 08:34:02;;;;;;;4.00;0.70;;;;;;;;;;5117327;28;20036;-71
2022/08/06 08:36:28;;;;;;;3.22;0.68;;;;;;;;;;5109928;28;20104;-70
2022/08/06 08:38:57;;;;;;;3.60;0.70;;;;;;;;;;5115766;28;20035;-71
2022/08/06 08:41:26;;;;;;;4.22;0.70;;;;;;;;;;5111931;28;20048;-71
2022/08/06 08:44:00;;;;;;;4.32;0.90;;;;;;;;;;5117210;28;20058;-70
2022/08/06 08:46:27;;;;;;;4.20;0.70;;;;;;;;;;5097155;28;20513;-71
2022/08/06 08:48:55;;;;;;;3.63;0.50;;;;;;;;;;5100596;28;20438;-71
2022/08/06 08:51:22;;;;;;;3.75;0.60;;;;;;;;;;5117352;28;20039;-72
2022/08/06 08:53:53;;;;;;;4.90;0.70;;;;;;;;;;5107638;28;20114;-72
2022/08/06 08:56:19;;;;;;;3.95;0.80;;;;;;;;;;5099459;28;20054;-71
2022/08/06 08:58:45;;;;;;;4.40;0.60;;;;;;;;;;5095999;28;20044;-71
2022/08/06 09:01:12;;;;;;;3.08;0.60;;;;;;;;;;5097445;28;20040;-70
2022/08/06 09:03:39;;;;;;;2.80;0.47;;;;;;;;;;5096421;28;20062;-71
2022/08/06 09:06:05;;;;;;;3.42;0.80;;;;;;;;;;5103298;28;20446;-72
2022/08/06 09:08:32;;;;;;;4.40;0.68;;;;;;;;;;5116213;28;20039;-72
2022/08/06 09:10:58;;;;;;;1.95;0.52;;;;;;;;;;5110521;28;20122;-71
2022/08/06 09:13:25;;;;;;;2.42;0.55;;;;;;;;;;5114978;28;20039;-73
2022/08/06 09:15:52;;;;;;;4.45;0.73;;;;;;;;;;5107563;28;20051;-71
2022/08/06 09:18:18;;;;;;;3.25;0.60;;;;;;;;;;5099528;28;20131;-71
2022/08/06 09:20:45;;;;;;;6.15;1.05;;;;;;;;;;5117258;28;20440;-71
2022/08/06 09:23:12;;;;;;;3.20;0.70;;;;;;;;;;5116271;28;20383;-71
2022/08/06 09:25:44;;;;;;;4.13;0.70;;;;;;;;;;5105443;28;20055;-71
2022/08/06 09:28:30;;;;;;;3.50;0.60;;;;;;;;;;5107969;28;20039;-71
2022/08/06 09:31:00;;;;;;;3.53;0.60;;;;;;;;;;5114783;28;20092;-71
2022/08/06 09:33:27;;;;;;;3.03;0.70;;;;;;;;;;5116011;28;20047;-72
2022/08/06 09:36:00;;;;;;;8.00;0.90;;;;;;;;;;5112643;28;20051;-71
2022/08/06 09:38:27;;;;;;;5.03;0.70;;;;;;;;;;5116249;28;20047;-72
2022/08/06 09:41:09;;;;;;;3.92;0.80;;;;;;;;;;5116178;28;20447;-71
2022/08/06 09:43:36;;;;;;;5.80;0.93;;;;;;;;;;5114893;28;20043;-71
2022/08/06 09:46:02;;;;;;;4.85;0.90;;;;;;;;;;5103401;28;20413;-72
2022/08/06 09:48:28;;;;;;;4.95;0.85;;;;;;;;;;5095859;28;20158;-71
2022/08/06 09:50:54;;;;;;;2.40;0.70;;;;;;;;;;5095222;28;20048;-71
2022/08/06 09:53:23;;;;;;;3.83;0.80;;;;;;;;;;5096372;28;20044;-72
2022/08/06 09:55:50;;;;;;;5.15;0.80;;;;;;;;;;5097165;28;20102;-73
2022/08/06 09:58:42;;;;;;;4.60;0.82;;;;;;;;;;5099526;28;20051;-73
2022/08/06 10:01:15;;;;;;;4.28;0.88;;;;;;;;;;5113376;28;20054;-72
2022/08/06 10:03:42;;;;;;;5.20;0.95;;;;;;;;;;5098508;28;20086;-71
2022/08/06 10:06:12;;;;;;;3.95;0.90;;;;;;;;;;5104977;28;20065;-73
2022/08/06 10:08:38;;;;;;;2.85;0.80;;;;;;;;;;5115656;28;20438;-72
2022/08/06 10:11:05;;;;;;;3.88;0.95;;;;;;;;;;5114918;28;20075;-73
2022/08/06 10:13:31;;;;;;;3.88;0.90;;;;;;;;;;5115241;28;20474;-73
2022/08/06 10:16:14;;;;;;;3.10;0.82;;;;;;;;;;5102277;28;20044;-73
2022/08/06 10:18:41;;;;;;;4.78;0.95;;;;;;;;;;5097301;28;20100;-75
2022/08/06 10:21:15;;;;;;;4.03;0.90;;;;;;;;;;5104752;28;20052;-76
2022/08/06 10:23:44;;;;;;;4.63;1.20;;;;;;;;;;5097323;28;20063;-75
2022/08/06 10:26:11;;;;;;;3.03;1.00;;;;;;;;;;5105900;28;20052;-75
2022/08/06 10:28:38;;;;;;;5.55;1.40;;;;;;;;;;5114047;28;20412;-75
2022/08/06 10:31:05;;;;;;;4.13;1.27;;;;;;;;;;5103318;28;20515;-75
2022/08/06 10:33:32;;;;;;;4.28;1.27;;;;;;;;;;5096102;28;20056;-73
2022/08/06 10:36:03;;;;;;;4.03;1.13;;;;;;;;;;5094071;28;20055;-72
2022/08/06 10:38:29;;;;;;;;;;;;;;;;;;5113919;28;20031;-74
2022/08/06 10:40:57;;;;;;;4.43;0.95;;;;;;;;;;5103809;28;20018;-73
2022/08/06 10:43:24;;;;;;;5.80;0.90;;;;;;;;;;5093275;28;20504;-73
2022/08/06 10:45:51;;;;;;;4.97;0.93;;;;;;;;;;5111098;28;20104;-73
2022/08/06 10:48:18;;;;;;;8.48;1.00;;;;;;;;;;5095772;28;20557;-73
2022/08/06 10:50:44;;;;;;;5.68;0.95;;;;;;;;;;5099854;28;20055;-73
2022/08/06 10:53:11;;;;;;;3.25;0.90;;;;;;;;;;5093693;28;20457;-72
2022/08/06 10:55:37;;;;;;;3.10;0.70;;;;;;;;;;5103521;28;20055;-72
2022/08/06 10:58:03;;;;;;;3.80;0.82;;;;;;;;;;5109539;28;20059;-73
2022/08/06 11:00:32;;;;;;;3.70;0.90;;;;;;;;;;5113779;28;20472;-72
2022/08/06 11:03:01;;;;;;;4.40;1.00;;;;;;;;;;5112101;28;20058;-72
2022/08/06 11:05:29;;;;;;;4.20;1.20;;;;;;;;;;5113812;28;20508;-72
2022/08/06 11:08:10;;;;;;;5.05;1.20;;;;;;;;;;5092867;28;20055;-73
2022/08/06 11:11:04;;;;;;;6.82;1.33;;;;;;;;;;5075716;28;20047;-73
2022/08/06 11:13:33;;;;;;;4.63;1.13;;;;;;;;;;5077020;28;20147;-78
2022/08/06 11:15:59;;;;;;;4.82;1.30;;;;;;;;;;5117972;28;20047;-76
2022/08/06 11:18:25;;;;;;;4.50;1.10;;;;;;;;;;5117159;28;20039;-79
2022/08/06 11:20:52;;;;;;;4.22;1.05;;;;;;;;;;5077999;28;20047;-75
2022/08/06 11:23:18;;;;;;;5.03;1.33;;;;;;;;;;5100671;28;20059;-75
2022/08/06 11:25:46;;;;;;;5.25;1.20;;;;;;;;;;5097451;28;20071;-74
2022/08/06 11:28:13;;;;;;;4.10;1.45;;;;;;;;;;5103401;28;20067;-75
2022/08/06 11:30:49;;;;;;;6.72;1.52;;;;;;;;;;5098154;28;20048;-76
2022/08/06 11:33:19;;;;;;;6.03;1.40;;;;;;;;;;5101143;28;20036;-77
2022/08/06 11:35:48;;;;;;;3.95;1.33;;;;;;;;;;5111222;28;20051;-74
2022/08/06 11:38:15;;;;;;;3.70;1.33;;;;;;;;;;5121354;28;20040;-76
2022/08/06 11:40:57;;;;;;;4.13;1.58;;;;;;;;;;5121123;28;20059;-75
2022/08/06 11:43:38;;;;;;;6.05;1.60;;;;;;;;;;5082219;28;20391;-73
2022/08/06 11:46:21;;;;;;;7.60;1.35;;;;;;;;;;5101745;28;20055;-73
2022/08/06 11:49:00;;;;;;;3.92;1.20;;;;;;;;;;5100615;28;20126;-73
2022/08/06 11:51:47;;;;;;;5.00;1.20;;;;;;;;;;5101145;28;20044;-76
2022/08/06 11:54:13;;;;;;;5.88;1.50;;;;;;;;;;5083723;28;20067;-73
2022/08/06 11:57:00;;;;;;;5.30;1.30;;;;;;;;;;5102825;28;20085;-74
2022/08/06 11:59:26;;;;;;;5.55;1.40;;;;;;;;;;5130302;27;20040;-74
2022/08/06 12:01:53;;;;;;;4.65;1.17;;;;;;;;;;5120239;28;20382;-75
2022/08/06 12:04:42;;;;;;;5.63;1.38;;;;;;;;;;5100266;28;20040;-75
2022/08/06 12:07:17;;;;;;;5.40;1.42;;;;;;;;;;5106629;28;20040;-74
2022/08/06 12:09:44;;;;;;;5.30;1.45;;;;;;;;;;5084044;28;20059;-74
2022/08/06 12:12:28;;;;;;;4.25;1.27;;;;;;;;;;5111257;28;20036;-72
2022/08/06 12:14:58;;;;;;;4.50;1.25;;;;;;;;;;5106906;28;20054;-75
2022/08/06 12:17:25;;;;;;;4.47;1.40;;;;;;;;;;5095936;28;20052;-73
2022/08/06 12:19:52;;;;;;;2.97;1.10;;;;;;;;;;5096952;28;20077;-75
2022/08/06 12:22:19;;;;;;;7.15;1.67;;;;;;;;;;5096212;28;20043;-74
2022/08/06 12:24:47;;;;;;;5.68;1.52;;;;;;;;;;5098307;28;20073;-74
2022/08/06 12:27:13;;;;;;;4.03;1.40;;;;;;;;;;5076695;28;20062;-73
2022/08/06 12:29:40;;;;;;;6.95;1.67;;;;;;;;;;5094039;28;20048;-76
2022/08/06 12:32:26;;;;;;;5.38;1.50;;;;;;;;;;5114953;28;20044;-74
2022/08/06 12:34:53;;;;;;;5.82;1.25;;;;;;;;;;5112775;28;20093;-75
2022/08/06 12:37:19;;;;;;;10.00;1.67;;;;;;;;;;5098554;28;20114;-75
2022/08/06 12:42:31;;;;;;;6.30;1.80;;;;;;;;;;5096584;28;20044;-74
2022/08/06 12:44:57;;;;;;;4.78;1.50;;;;;;;;;;5100392;28;20047;-73
2022/08/06 12:47:25;;;;;;;5.25;1.70;;;;;;;;;;5104825;28;20036;-73
2022/08/06 12:49:52;;;;;;;4.43;1.48;;;;;;;;;;5098586;28;20051;-70
2022/08/06 12:52:20;;;;;;;12.63;2.28;;;;;;;;;;5095908;28;20055;-71
2022/08/06 12:54:47;;;;;;;5.40;1.67;;;;;;;;;;5100219;28;20067;-71
2022/08/06 12:57:23;;;;;;;24.05;2.70;;;;;;;;;;5116114;28;20044;-71
2022/08/06 12:59:50;;;;;;;5.22;1.50;;;;;;;;;;5110659;28;20040;-70
2022/08/06 13:02:17;;;;;;;3.80;1.60;;;;;;;;;;5095820;28;20051;-71
2022/08/06 13:04:51;;;;;;;4.13;1.75;;;;;;;;;;5095345;28;20036;-71
2022/08/06 13:07:18;;;;;;;3.75;1.63;;;;;;;;;;5097523;28;20085;-71
2022/08/06 13:09:46;;;;;;;12.20;2.00;;;;;;;;;;5108315;28;20031;-73
2022/08/06 13:12:15;;;;;;;5.45;1.70;;;;;;;;;;5073178;28;20123;-71
2022/08/06 13:14:52;;;;;;;5.72;1.95;;;;;;;;;;5099122;28;20516;-70
2022/08/06 13:17:21;;;;;;;6.03;1.80;;;;;;;;;;5117786;28;20043;-73
2022/08/06 13:19:51;;;;;;;4.65;2.00;;;;;;;;;;5085197;28;20054;-70
2022/08/06 13:22:17;;;;;;;3.87;1.83;;;;;;;;;;5095897;28;20093;-71
2022/08/06 13:24:43;;;;;;;5.00;2.13;;;;;;;;;;5095973;28;20297;-74
2022/08/06 13:27:09;;;;;;;4.72;1.98;;;;;;;;;;5104933;28;20135;-72
2022/08/06 13:29:35;;;;;;;5.75;1.80;;;;;;;;;;5111961;28;20047;-72
2022/08/06 13:32:06;;;;;;;7.05;2.08;;;;;;;;;;5116659;28;20047;-70
2022/08/06 13:34:57;;;;;;;4.68;1.98;;;;;;;;;;5115236;28;20374;-75
2022/08/06 13:37:53;;;;;;;5.47;2.08;;;;;;;;;;5096517;28;20073;-75
2022/08/06 13:40:19;;;;;;;4.53;1.83;;;;;;;;;;5085755;28;20514;-72
2022/08/06 13:42:49;;;;;;;4.70;1.95;;;;;;;;;;5105044;28;20051;-74
2022/08/06 13:45:19;;;;;;;5.63;2.10;;;;;;;;;;5099641;28;20071;-74
2022/08/06 13:47:49;;;;;;;4.20;2.13;;;;;;;;;;5110166;28;20412;-73
2022/08/06 13:50:15;;;;;;;4.50;2.30;;;;;;;;;;5115461;28;20051;-72
2022/08/06 13:52:41;;;;;;;3.63;1.98;;;;;;;;;;5115285;28;20043;-72
2022/08/06 13:55:07;;;;;;;5.55;2.20;;;;;;;;;;5096598;28;20395;-72
2022/08/06 13:57:35;;;;;;;5.82;2.50;;;;;;;;;;5094430;28;20490;-72
2022/08/06 14:00:01;;;;;;;4.63;2.20;;;;;;;;;;5103539;28;20122;-71
2022/08/06 14:02:27;;;;;;;5.70;2.80;;;;;;;;;;5111990;28;20040;-70
2022/08/06 14:04:53;;;;;;;4.30;2.13;;;;;;;;;;5114961;28;20050;-72
2022/08/06 14:07:19;;;;;;;6.53;2.40;;;;;;;;;;5101728;28;20481;-72
2022/08/06 14:09:46;;;;;;;8.90;2.30;;;;;;;;;;5095009;28;20520;-72
2022/08/06 14:12:12;;;;;;;5.28;2.25;;;;;;;;;;5097424;28;20044;-73
2022/08/06 14:14:38;;;;;;;6.32;2.70;;;;;;;;;;5100786;28;20063;-76
2022/08/06 14:17:07;;;;;;;5.80;2.97;;;;;;;;;;5095349;28;20040;-70
2022/08/06 14:19:33;;;;;;;6.47;2.83;;;;;;;;;;5107685;28;20409;-72
2022/08/06 14:21:59;;;;;;;7.32;3.10;;;;;;;;;;5109121;28;20054;-73
2022/08/06 14:24:25;;;;;;;11.02;3.20;;;;;;;;;;5094760;28;20047;-73
2022/08/06 14:26:51;;;;;;;11.57;3.72;;;;;;;;;;5096833;28;20060;-71
2022/08/06 14:29:17;;;;;;;6.00;3.00;;;;;;;;;;5114829;28;20039;-72
2022/08/06 14:31:43;;;;;;;6.28;3.42;;;;;;;;;;5115658;28;20047;-71
2022/08/06 14:34:09;;;;;;;7.70;3.03;;;;;;;;;;5103079;28;20047;-73
2022/08/06 14:36:37;;;;;;;8.52;3.42;;;;;;;;;;5108342;28;20048;-73
2022/08/06 14:39:03;;;;;;;7.10;3.47;;;;;;;;;;5103530;28;20397;-75
2022/08/06 14:46:58;;;;;;;6.18;3.55;;;;;;;;;;5114139;28;20044;-71
2022/08/06 14:49:25;;;;;;;6.50;3.65;;;;;;;;;;5106797;28;20137;-73
2022/08/06 14:51:51;;;;;;;8.32;3.63;;;;;;;;;;5104156;28;20544;-73
2022/08/06 14:54:20;;;;;;;5.82;3.47;;;;;;;;;;5075150;28;20495;-71
2022/08/06 14:56:47;;;;;;;7.18;3.35;;;;;;;;;;5092768;28;20048;-73
2022/08/06 14:59:13;;;;;;;9.13;3.67;;;;;;;;;;5092946;28;20048;-71
2022/08/06 15:01:39;;;;;;;6.05;3.75;;;;;;;;;;5075191;28;20052;-71
2022/08/06 15:04:05;;;;;;;5.80;3.58;;;;;;;;;;5096943;28;20040;-71